createdAt,value
2022-12-13T00:02:07.368Z,180.00
2022-12-13T00:04:37.286Z,170.15
2022-12-13T00:07:07.209Z,166.93
2022-12-13T00:09:37.184Z,154.13
2022-12-13T00:12:07.143Z,162.85
2022-12-13T00:14:37.105Z,152.65
2022-12-13T00:17:08.324Z,156.70
2022-12-13T00:19:40.017Z,151.13
2022-12-13T00:22:09.964Z,158.98
2022-12-13T00:24:45.754Z,147.10
2022-12-13T00:27:15.984Z,134.55
2022-12-13T00:29:45.797Z,150.02
2022-12-13T00:32:15.848Z,148.80
2022-12-13T00:34:46.422Z,152.02
2022-12-13T00:37:16.324Z,139.95
2022-12-13T00:39:46.436Z,139.47
2022-12-13T00:42:16.496Z,134.10
2022-12-13T00:44:47.223Z,133.73
2022-12-13T00:47:17.865Z,123.97
2022-12-13T00:49:47.808Z,118.82
2022-12-13T00:52:17.711Z,139.57
2022-12-13T00:54:47.715Z,135.35
2022-12-13T00:57:17.515Z,130.45
2022-12-13T00:59:47.425Z,128.33
2022-12-13T01:02:17.326Z,110.15
2022-12-13T01:04:47.257Z,115.53
2022-12-13T01:07:17.178Z,122.05
2022-12-13T01:09:47.210Z,125.07
2022-12-13T01:12:17.164Z,133.48
2022-12-13T01:14:50.613Z,116.47
2022-12-13T01:17:23.054Z,116.80
2022-12-13T01:19:53.038Z,129.30
2022-12-13T01:22:22.958Z,113.72
2022-12-13T01:24:53.171Z,124.60
2022-12-13T01:27:23.254Z,134.68
2022-12-13T01:29:53.256Z,146.63
2022-12-13T01:32:23.203Z,162.88
2022-12-13T01:34:53.101Z,179.32
2022-12-13T01:37:25.971Z,163.02
2022-12-13T01:39:58.416Z,159.77
2022-12-13T01:42:28.506Z,159.20
2022-12-13T01:45:07.869Z,128.47
2022-12-13T01:47:50.479Z,150.95
2022-12-13T01:50:27.599Z,156.70
2022-12-13T01:53:00.351Z,163.20
2022-12-13T01:55:41.519Z,149.65
2022-12-13T01:58:13.020Z,170.10
2022-12-13T02:00:43.905Z,176.55
2022-12-13T02:06:15.023Z,172.70
2022-12-13T02:08:48.568Z,177.93
2022-12-13T02:11:18.688Z,164.77
2022-12-13T02:13:48.594Z,169.27
2022-12-13T02:16:55.073Z,186.85
2022-12-13T02:19:50.529Z,166.75
2022-12-13T02:26:21.495Z,166.57
2022-12-13T02:29:12.956Z,167.43
2022-12-13T02:32:19.757Z,180.80
2022-12-13T02:35:02.224Z,173.15
2022-12-13T02:37:45.978Z,167.23
2022-12-13T02:40:29.689Z,155.70
2022-12-13T02:43:36.525Z,162.68
2022-12-13T02:46:18.915Z,157.52
2022-12-13T02:48:52.036Z,158.48
2022-12-13T02:51:24.340Z,158.13
2022-12-13T02:53:54.236Z,168.23
2022-12-13T02:56:24.065Z,153.45
2022-12-13T02:58:58.803Z,157.15
2022-12-13T03:01:44.658Z,153.63
2022-12-13T03:05:05.729Z,159.07
2022-12-13T03:10:22.287Z,155.45
2022-12-13T03:13:17.354Z,148.15
2022-12-13T03:15:59.473Z,170.55
2022-12-13T03:18:31.911Z,170.95
2022-12-13T03:21:06.336Z,157.05
2022-12-13T03:23:36.271Z,154.80
2022-12-13T03:26:12.482Z,167.60
2022-12-13T03:28:42.839Z,170.60
2022-12-13T03:31:13.250Z,159.63
2022-12-13T03:33:43.382Z,160.65
2022-12-13T03:36:18.765Z,168.70
2022-12-13T03:38:50.941Z,168.65
2022-12-13T03:41:23.953Z,165.38
2022-12-13T03:43:54.177Z,177.27
2022-12-13T03:46:24.100Z,149.82
2022-12-13T03:48:54.013Z,157.55
2022-12-13T03:51:24.070Z,184.73
2022-12-13T03:53:54.141Z,178.27
2022-12-13T03:56:24.021Z,160.82
2022-12-13T03:58:54.239Z,198.15
2022-12-13T04:01:25.008Z,160.25
2022-12-13T04:03:54.928Z,168.38
2022-12-13T04:06:28.579Z,169.80
2022-12-13T04:09:01.551Z,167.45
2022-12-13T04:11:43.356Z,153.65
2022-12-13T04:14:21.904Z,164.25
2022-12-13T04:16:53.610Z,158.25
2022-12-13T04:19:24.276Z,156.63
2022-12-13T04:21:56.620Z,157.73
2022-12-13T04:24:31.646Z,168.63
2022-12-13T04:27:04.549Z,157.27
2022-12-13T04:29:35.479Z,153.30
2022-12-13T04:32:26.087Z,152.00
2022-12-13T04:35:01.245Z,143.73
2022-12-13T04:37:43.494Z,133.55
2022-12-13T04:40:14.705Z,129.85
2022-12-13T04:42:54.087Z,128.80
2022-12-13T04:45:25.193Z,136.20
2022-12-13T04:47:55.121Z,157.40
2022-12-13T04:50:25.175Z,196.13
2022-12-13T04:52:55.996Z,172.80
2022-12-13T04:55:25.876Z,157.13
2022-12-13T04:57:56.117Z,170.85
2022-12-13T05:00:26.306Z,145.52
2022-12-13T05:02:56.363Z,154.40
2022-12-13T05:05:26.617Z,142.38
2022-12-13T05:07:57.455Z,162.18
2022-12-13T05:10:32.115Z,169.15
2022-12-13T05:13:07.946Z,174.23
2022-12-13T05:15:40.554Z,169.00
2022-12-13T05:18:11.218Z,156.68
2022-12-13T05:20:42.788Z,168.20
2022-12-13T05:23:12.877Z,151.50
2022-12-13T05:25:42.819Z,148.95
2022-12-13T05:28:28.110Z,148.75
2022-12-13T05:31:01.243Z,162.15
2022-12-13T05:33:31.245Z,152.70
2022-12-13T05:36:02.278Z,141.00
2022-12-13T05:38:33.025Z,141.15
2022-12-13T05:41:03.583Z,141.25
2022-12-13T05:43:42.762Z,140.65
2022-12-13T05:46:15.114Z,130.50
2022-12-13T05:48:45.177Z,127.95
2022-12-13T05:51:16.241Z,126.82
2022-12-13T05:53:51.563Z,133.13
2022-12-13T05:56:24.285Z,125.07
2022-12-13T05:58:55.860Z,118.85
2022-12-13T06:01:25.900Z,107.70
2022-12-13T06:03:55.805Z,132.57
2022-12-13T06:06:25.783Z,109.50
2022-12-13T06:08:55.975Z,106.00
2022-12-13T06:11:31.422Z,80.78
2022-12-13T06:14:02.580Z,109.72
2022-12-13T06:16:32.584Z,93.32
2022-12-13T06:19:04.624Z,98.72
2022-12-13T06:21:41.828Z,91.55
2022-12-13T06:24:20.264Z,96.18
2022-12-13T06:26:51.417Z,104.05
2022-12-13T06:29:25.581Z,92.10
2022-12-13T06:32:01.891Z,79.05
2022-12-13T06:34:37.086Z,104.97
2022-12-13T06:37:10.251Z,97.10
2022-12-13T06:39:40.571Z,83.97
2022-12-13T06:42:22.458Z,108.07
2022-12-13T06:44:55.798Z,97.50
2022-12-13T06:47:31.287Z,95.15
2022-12-13T06:50:05.104Z,87.00
2022-12-13T06:52:36.216Z,87.05
2022-12-13T06:55:06.929Z,96.65
2022-12-13T06:57:37.268Z,87.22
2022-12-13T07:00:12.043Z,89.80
2022-12-13T07:02:42.252Z,92.80
2022-12-13T07:07:42.405Z,95.80
2022-12-13T07:10:22.381Z,97.65
2022-12-13T07:12:53.264Z,97.32
2022-12-13T07:17:54.450Z,77.38
2022-12-13T07:20:25.319Z,60.35
2022-12-13T07:22:59.250Z,49.97
2022-12-13T07:25:29.892Z,57.03
2022-12-13T07:28:02.689Z,58.03
2022-12-13T07:30:41.098Z,40.40
2022-12-13T07:33:13.086Z,35.95
2022-12-13T07:35:55.546Z,37.70
2022-12-13T07:38:25.981Z,34.15
2022-12-13T07:43:28.184Z,28.95
2022-12-13T07:46:02.837Z,48.10
2022-12-13T07:48:33.263Z,51.28
2022-12-13T07:51:06.796Z,73.10
2022-12-13T07:53:37.186Z,53.47
2022-12-13T07:56:09.012Z,63.72
2022-12-13T07:58:39.730Z,56.60
2022-12-13T08:01:13.851Z,56.92
2022-12-13T08:03:44.113Z,50.60
2022-12-13T08:08:44.751Z,55.70
2022-12-13T08:13:45.225Z,53.17
2022-12-13T08:16:26.404Z,52.08
2022-12-13T08:19:01.737Z,45.90
2022-12-13T08:21:53.877Z,43.75
2022-12-13T08:24:26.769Z,37.03
2022-12-13T08:26:58.618Z,43.53
2022-12-13T08:29:34.088Z,47.67
2022-12-13T08:32:15.405Z,48.65
2022-12-13T08:34:45.526Z,52.72
2022-12-13T08:37:16.065Z,49.60
2022-12-13T08:39:46.858Z,50.28
2022-12-13T08:42:20.021Z,42.10
2022-12-13T08:44:52.572Z,45.05
2022-12-13T08:47:26.742Z,50.50
2022-12-13T08:50:02.942Z,43.38
2022-12-13T08:52:40.606Z,56.40
2022-12-13T08:58:43.561Z,46.70
2022-12-13T09:01:14.081Z,41.25
2022-12-13T09:03:44.225Z,48.28
2022-12-13T09:06:19.560Z,51.78
2022-12-13T09:08:51.885Z,51.47
2022-12-13T09:11:33.161Z,48.25
2022-12-13T09:14:08.504Z,49.70
2022-12-13T09:16:50.742Z,58.80
2022-12-13T09:19:25.345Z,61.70
2022-12-13T09:22:02.305Z,57.17
2022-12-13T09:24:35.951Z,56.30
2022-12-13T09:27:09.724Z,63.58
2022-12-13T09:29:42.477Z,49.60
2022-12-13T09:32:12.459Z,54.38
2022-12-13T09:34:43.147Z,51.47
2022-12-13T09:37:23.196Z,49.38
2022-12-13T09:39:55.047Z,54.92
2022-12-13T09:42:31.579Z,43.22
2022-12-13T09:45:22.437Z,42.88
2022-12-13T09:48:01.268Z,44.40
2022-12-13T09:50:37.623Z,43.30
2022-12-13T09:53:12.094Z,54.85
2022-12-13T09:56:10.443Z,54.97
2022-12-13T09:58:41.532Z,48.00
2022-12-13T10:01:22.623Z,61.67
2022-12-13T10:03:57.955Z,52.90
2022-12-13T10:06:33.871Z,48.03
2022-12-13T10:09:04.561Z,54.72
2022-12-13T10:11:35.504Z,52.42
2022-12-13T10:14:17.790Z,52.85
2022-12-13T10:16:57.533Z,50.47
2022-12-13T10:19:39.186Z,53.58
2022-12-13T10:22:17.688Z,54.92
2022-12-13T10:24:56.666Z,55.15
2022-12-13T10:27:43.404Z,63.90
2022-12-13T10:30:28.807Z,54.33
2022-12-13T10:33:06.109Z,49.42
2022-12-13T10:35:41.768Z,48.08
2022-12-13T10:38:33.167Z,59.42
2022-12-13T10:41:03.488Z,57.38
2022-12-13T10:46:25.063Z,64.45
2022-12-13T10:48:56.397Z,63.50
2022-12-13T10:51:26.715Z,62.65
2022-12-13T10:54:01.011Z,75.55
2022-12-13T10:56:45.607Z,66.70
2022-12-13T10:59:39.281Z,76.07
2022-12-13T11:02:43.827Z,71.88
2022-12-13T11:05:36.826Z,74.22
2022-12-13T11:08:28.866Z,69.50
2022-12-13T11:11:04.481Z,62.08
2022-12-13T11:13:53.262Z,72.00
2022-12-13T11:16:32.516Z,80.38
2022-12-13T11:19:07.039Z,79.60
2022-12-13T11:21:41.702Z,83.13
2022-12-13T11:24:23.057Z,117.68
2022-12-13T11:27:01.442Z,85.57
2022-12-13T11:29:49.057Z,78.43
2022-12-13T11:32:56.011Z,82.05
2022-12-13T11:35:40.473Z,88.00
2022-12-13T11:38:41.447Z,71.38
2022-12-13T11:41:32.544Z,67.43
2022-12-13T11:44:14.473Z,76.65
2022-12-13T11:46:50.249Z,105.50
2022-12-13T11:49:43.283Z,119.25
2022-12-13T11:52:34.330Z,113.20
2022-12-13T11:55:18.210Z,111.90
2022-12-13T11:58:10.322Z,123.60
2022-12-13T12:00:47.964Z,173.00
2022-12-13T12:03:24.270Z,155.45
2022-12-13T12:06:02.701Z,165.57
2022-12-13T12:08:44.867Z,165.82
2022-12-13T12:11:52.674Z,173.02
2022-12-13T12:14:31.148Z,158.93
2022-12-13T12:17:02.853Z,152.50
2022-12-13T12:19:40.188Z,133.30
2022-12-13T12:22:49.579Z,133.48
2022-12-13T12:25:53.357Z,139.43
2022-12-13T12:28:52.985Z,145.00
2022-12-13T12:31:51.009Z,119.25
2022-12-13T12:34:42.420Z,132.55
2022-12-13T12:37:32.433Z,132.13
2022-12-13T12:41:07.197Z,124.25
2022-12-13T12:43:38.110Z,140.18
2022-12-13T12:47:08.932Z,129.20
2022-12-13T12:50:04.762Z,117.80
2022-12-13T12:52:53.477Z,108.13
2022-12-13T12:55:59.643Z,102.63
2022-12-13T12:58:46.653Z,117.47
2022-12-13T13:01:55.220Z,127.53
2022-12-13T13:04:35.531Z,131.50
2022-12-13T13:07:23.032Z,137.50
2022-12-13T13:09:56.152Z,126.30
2022-12-13T13:12:30.089Z,130.25
2022-12-13T13:15:02.522Z,134.80
2022-12-13T13:17:52.247Z,147.52
2022-12-13T13:20:27.980Z,179.03
2022-12-13T13:23:39.100Z,141.50
2022-12-13T13:26:23.314Z,151.77
2022-12-13T13:28:49.031Z,145.60
2022-12-13T13:31:19.369Z,138.35
2022-12-13T13:33:52.882Z,134.18
2022-12-13T13:36:49.757Z,144.00
2022-12-13T13:39:40.199Z,133.50
2022-12-13T13:42:21.439Z,126.75
2022-12-13T13:45:05.246Z,137.02
2022-12-13T13:47:42.114Z,131.63
2022-12-13T13:50:51.684Z,129.05
2022-12-13T13:54:00.623Z,139.10
2022-12-13T13:56:50.130Z,147.90
2022-12-13T13:59:47.171Z,195.20
2022-12-13T14:02:49.478Z,225.60
2022-12-13T14:05:52.436Z,224.20
2022-12-13T14:08:53.370Z,215.23
2022-12-13T14:11:50.011Z,254.00
2022-12-13T14:14:49.900Z,213.15
2022-12-13T14:17:49.873Z,223.02
2022-12-13T14:20:40.953Z,208.20
2022-12-13T14:23:31.846Z,201.50
2022-12-13T14:26:40.613Z,190.43
2022-12-13T14:29:22.212Z,180.50
2022-12-13T14:31:52.744Z,195.48
2022-12-13T14:37:02.409Z,199.77
2022-12-13T14:39:36.888Z,193.75
2022-12-13T14:42:26.554Z,223.07
2022-12-13T14:44:56.990Z,231.50
2022-12-13T14:49:59.191Z,193.45
2022-12-13T14:52:35.414Z,207.38
2022-12-13T14:55:06.472Z,203.85
2022-12-13T14:57:37.944Z,201.63
2022-12-13T15:00:30.309Z,193.25
2022-12-13T15:03:02.990Z,181.15
2022-12-13T15:05:42.229Z,179.25
2022-12-13T15:08:21.646Z,186.35
2022-12-13T15:10:58.419Z,206.40
2022-12-13T15:13:37.406Z,188.27
2022-12-13T15:16:12.779Z,174.65
2022-12-13T15:18:43.196Z,189.73
2022-12-13T15:21:26.527Z,180.30
2022-12-13T15:23:57.634Z,188.73
2022-12-13T15:26:30.118Z,185.55
2022-12-13T15:29:10.137Z,186.50
2022-12-13T15:31:43.166Z,193.73
2022-12-13T15:34:38.802Z,182.63
2022-12-13T15:37:28.199Z,177.17
2022-12-13T15:40:08.255Z,192.38
2022-12-13T15:42:46.243Z,194.20
2022-12-13T15:45:25.071Z,171.95
2022-12-13T15:47:56.426Z,181.25
2022-12-13T15:50:43.684Z,171.40
2022-12-13T15:53:29.713Z,157.95
2022-12-13T15:56:02.281Z,152.88
2022-12-13T15:58:37.975Z,149.52
2022-12-13T16:01:08.501Z,149.10
2022-12-13T16:03:53.526Z,151.82
2022-12-13T16:06:29.725Z,167.52
2022-12-13T16:09:04.077Z,159.95
2022-12-13T16:11:48.053Z,147.23
2022-12-13T16:14:49.548Z,157.82
2022-12-13T16:17:32.646Z,174.48
2022-12-13T16:20:09.458Z,162.38
2022-12-13T16:22:40.781Z,216.68
2022-12-13T16:25:17.604Z,197.88
2022-12-13T16:27:49.012Z,202.65
2022-12-13T16:30:29.146Z,192.13
2022-12-13T16:35:50.084Z,206.65
2022-12-13T16:38:26.405Z,194.50
2022-12-13T16:41:08.814Z,210.30
2022-12-13T16:43:48.707Z,219.00
2022-12-13T16:47:13.039Z,223.70
2022-12-13T16:49:22.982Z,210.13
2022-12-13T16:51:53.266Z,214.50
2022-12-13T16:54:25.301Z,206.50
2022-12-13T16:56:57.098Z,220.50
2022-12-13T16:59:29.404Z,206.95
2022-12-13T17:01:59.954Z,179.93
2022-12-13T17:04:30.148Z,156.80
2022-12-13T17:07:00.629Z,154.35
2022-12-13T17:09:35.625Z,158.07
2022-12-13T17:12:06.056Z,156.27
2022-12-13T17:14:39.364Z,152.38
2022-12-13T17:17:12.955Z,147.20
2022-12-13T17:19:47.695Z,150.25
2022-12-13T17:22:18.392Z,144.52
2022-12-13T17:24:48.761Z,151.32
2022-12-13T17:27:20.171Z,172.77
2022-12-13T17:29:51.362Z,171.98
2022-12-13T17:32:21.981Z,175.63
2022-12-13T17:37:22.897Z,201.88
2022-12-13T17:39:52.899Z,246.63
2022-12-13T17:42:23.024Z,248.68
2022-12-13T17:44:52.947Z,231.75
2022-12-13T17:47:22.816Z,231.45
2022-12-13T17:49:54.145Z,227.68
2022-12-13T17:52:24.828Z,213.50
2022-12-13T17:54:55.275Z,212.27
2022-12-13T17:57:28.776Z,211.40
2022-12-13T17:59:58.628Z,212.35
2022-12-13T18:02:28.810Z,210.95
2022-12-13T18:04:58.650Z,205.27
2022-12-13T18:07:29.271Z,207.80
2022-12-13T18:12:31.129Z,193.30
2022-12-13T18:15:01.299Z,201.00
2022-12-13T18:18:09.034Z,201.88
2022-12-13T18:20:21.542Z,184.57
2022-12-13T18:22:52.198Z,211.88
2022-12-13T18:25:22.257Z,219.32
2022-12-13T18:27:56.128Z,236.05
2022-12-13T18:30:30.254Z,203.73
2022-12-13T18:33:01.744Z,199.85
2022-12-13T18:35:32.233Z,187.35
2022-12-13T18:38:03.517Z,178.15
2022-12-13T18:40:34.266Z,163.57
2022-12-13T18:45:41.223Z,158.68
2022-12-13T18:48:11.522Z,151.77
2022-12-13T18:50:48.504Z,149.50
2022-12-13T18:53:18.959Z,155.45
2022-12-13T18:55:49.857Z,130.82
2022-12-13T18:58:20.499Z,134.68
2022-12-13T19:00:50.694Z,126.55
2022-12-13T19:03:23.205Z,134.20
2022-12-13T19:05:55.209Z,113.60
2022-12-13T19:08:28.113Z,121.78
2022-12-13T19:11:01.938Z,121.72
2022-12-13T19:13:33.894Z,116.18
2022-12-13T19:16:10.599Z,114.53
2022-12-13T19:18:45.019Z,107.55
2022-12-13T19:21:19.266Z,103.10
2022-12-13T19:23:55.880Z,108.13
2022-12-13T19:26:30.228Z,116.20
2022-12-13T19:29:01.400Z,113.88
2022-12-13T19:31:32.641Z,113.35
2022-12-13T19:34:05.215Z,116.35
2022-12-13T19:36:35.444Z,123.65
2022-12-13T19:39:05.961Z,107.40
2022-12-13T19:41:36.014Z,109.38
2022-12-13T19:44:06.454Z,108.88
2022-12-13T19:46:36.863Z,108.82
2022-12-13T19:49:07.118Z,119.28
2022-12-13T19:51:39.861Z,119.10
2022-12-13T19:54:12.276Z,103.80
2022-12-13T19:56:43.538Z,114.72
2022-12-13T19:59:18.207Z,115.70
2022-12-13T20:01:48.550Z,103.97
2022-12-13T20:04:19.267Z,126.60
2022-12-13T20:09:19.010Z,110.30
2022-12-13T20:11:48.844Z,117.30
2022-12-13T20:14:18.830Z,100.20
2022-12-13T20:16:49.475Z,106.32
2022-12-13T20:19:19.712Z,107.38
2022-12-13T20:21:55.072Z,110.65
2022-12-13T20:24:26.938Z,101.65
2022-12-13T20:26:57.082Z,104.18
2022-12-13T20:29:27.951Z,100.90
2022-12-13T20:31:58.889Z,99.88
2022-12-13T20:34:28.726Z,99.95
2022-12-13T20:36:58.764Z,95.43
2022-12-13T20:39:28.754Z,101.28
2022-12-13T20:41:58.626Z,80.20
2022-12-13T20:44:28.627Z,90.47
2022-12-13T20:46:58.689Z,82.38
2022-12-13T20:49:28.646Z,84.45
2022-12-13T20:51:58.764Z,82.38
2022-12-13T20:54:28.824Z,80.03
2022-12-13T20:56:58.777Z,86.35
2022-12-13T20:59:28.724Z,77.57
2022-12-13T21:01:58.708Z,79.90
2022-12-13T21:04:29.675Z,115.85
2022-12-13T21:07:00.149Z,92.60
2022-12-13T21:09:29.955Z,76.95
2022-12-13T21:11:59.985Z,78.83
2022-12-13T21:14:31.047Z,80.38
2022-12-13T21:17:02.787Z,79.75
2022-12-13T21:19:39.875Z,82.00
2022-12-13T21:22:10.602Z,84.68
2022-12-13T21:24:40.625Z,89.68
2022-12-13T21:27:10.463Z,79.25
2022-12-13T21:29:40.406Z,85.40
2022-12-13T21:32:10.760Z,88.25
2022-12-13T21:34:41.539Z,94.82
2022-12-13T21:39:40.813Z,91.47
2022-12-13T21:42:11.168Z,95.18
2022-12-13T21:44:41.091Z,94.90
2022-12-13T21:47:12.671Z,90.88
2022-12-13T21:49:48.377Z,78.45
2022-12-13T21:52:19.438Z,93.30
2022-12-13T21:54:52.782Z,90.13
2022-12-13T21:57:36.663Z,94.90
2022-12-13T22:02:36.390Z,94.65
2022-12-13T22:05:06.525Z,90.95
2022-12-13T22:07:36.690Z,102.30
2022-12-13T22:10:07.191Z,91.30
2022-12-13T22:12:40.394Z,92.93
2022-12-13T22:15:13.376Z,91.45
2022-12-13T22:17:44.844Z,91.53
2022-12-13T22:20:17.287Z,93.85
2022-12-13T22:22:50.063Z,100.72
2022-12-13T22:25:21.145Z,93.15
2022-12-13T22:27:51.039Z,82.03
2022-12-13T22:30:20.992Z,89.78
2022-12-13T22:32:50.907Z,82.55
2022-12-13T22:35:20.881Z,94.38
2022-12-13T22:37:52.054Z,83.20
2022-12-13T22:40:23.223Z,104.38
2022-12-13T22:42:53.090Z,81.55
2022-12-13T22:45:22.920Z,85.50
2022-12-13T22:47:53.013Z,93.37
2022-12-13T22:50:22.794Z,90.38
2022-12-13T22:52:52.803Z,74.03
2022-12-13T22:55:23.574Z,77.85
2022-12-13T23:00:23.486Z,85.72
2022-12-13T23:02:56.188Z,82.43
2022-12-13T23:05:26.220Z,91.40
2022-12-13T23:07:56.028Z,74.53
2022-12-13T23:10:41.076Z,91.70
2022-12-13T23:13:16.177Z,95.22
2022-12-13T23:15:49.335Z,86.22
2022-12-13T23:18:19.534Z,78.10
2022-12-13T23:20:49.765Z,84.10
2022-12-13T23:23:19.692Z,99.47
2022-12-13T23:25:49.581Z,94.57
2022-12-13T23:28:19.661Z,89.03
2022-12-13T23:30:49.667Z,81.68
2022-12-13T23:33:19.640Z,76.43
2022-12-13T23:35:59.033Z,75.95
2022-12-13T23:38:29.786Z,81.75
2022-12-13T23:43:45.848Z,74.15
2022-12-13T23:46:21.527Z,67.25
2022-12-13T23:48:51.756Z,73.78
2022-12-13T23:51:22.466Z,74.47
2022-12-13T23:53:52.417Z,80.43
2022-12-13T23:56:22.762Z,92.57
2022-12-13T23:58:53.264Z,75.05
